createdAt,value
2023-01-13T00:01:29.343Z,18.10
2023-01-13T00:03:57.447Z,17.67
2023-01-13T00:06:29.710Z,19.30
2023-01-13T00:08:56.958Z,17.83
2023-01-13T00:11:24.681Z,21.38
2023-01-13T00:13:51.968Z,21.95
2023-01-13T00:16:20.126Z,19.45
2023-01-13T00:18:48.449Z,16.35
2023-01-13T00:21:19.562Z,16.17
2023-01-13T00:23:47.644Z,16.08
2023-01-13T00:26:18.452Z,15.45
2023-01-13T00:28:45.568Z,16.33
2023-01-13T00:31:16.337Z,16.58
2023-01-13T00:33:44.041Z,14.77
2023-01-13T00:36:16.126Z,16.23
2023-01-13T00:38:44.139Z,14.38
2023-01-13T00:41:16.386Z,13.43
2023-01-13T00:43:44.280Z,12.68
2023-01-13T00:46:14.347Z,15.20
2023-01-13T00:48:41.339Z,14.75
2023-01-13T00:51:13.329Z,18.85
2023-01-13T00:53:43.643Z,15.25
2023-01-13T00:56:34.046Z,16.30
2023-01-13T00:59:06.008Z,16.60
2023-01-13T01:01:33.519Z,18.95
2023-01-13T01:04:00.444Z,16.60
2023-01-13T01:06:28.521Z,20.40
2023-01-13T01:08:56.125Z,20.45
2023-01-13T01:11:29.242Z,20.35
2023-01-13T01:13:58.532Z,17.55
2023-01-13T01:16:28.629Z,19.42
2023-01-13T01:18:56.528Z,19.25
2023-01-13T01:21:25.914Z,19.00
2023-01-13T01:23:53.895Z,22.73
2023-01-13T01:26:25.887Z,26.05
2023-01-13T01:28:53.964Z,19.52
2023-01-13T01:31:27.618Z,22.25
2023-01-13T01:33:55.887Z,21.17
2023-01-13T01:36:26.307Z,18.10
2023-01-13T01:38:58.058Z,21.15
2023-01-13T01:41:28.287Z,20.95
2023-01-13T01:44:10.716Z,16.92
2023-01-13T01:46:42.827Z,21.17
2023-01-13T01:49:43.164Z,16.30
2023-01-13T01:52:19.971Z,15.75
2023-01-13T01:54:58.924Z,19.20
2023-01-13T01:57:53.403Z,16.65
2023-01-13T02:00:20.922Z,17.05
2023-01-13T02:02:50.604Z,17.85
2023-01-13T02:05:18.123Z,19.67
2023-01-13T02:07:49.564Z,18.73
2023-01-13T02:10:20.845Z,19.25
2023-01-13T02:12:49.966Z,19.50
2023-01-13T02:15:21.325Z,17.23
2023-01-13T02:18:15.970Z,17.02
2023-01-13T02:20:55.010Z,15.38
2023-01-13T02:23:59.491Z,16.00
2023-01-13T02:26:51.162Z,18.85
2023-01-13T02:29:57.085Z,16.15
2023-01-13T02:32:34.682Z,15.70
2023-01-13T02:35:07.772Z,14.40
2023-01-13T02:37:39.729Z,16.80
2023-01-13T02:40:10.534Z,16.02
2023-01-13T02:43:04.133Z,18.50
2023-01-13T02:48:14.364Z,15.25
2023-01-13T02:51:07.723Z,15.52
2023-01-13T02:53:40.937Z,14.82
2023-01-13T02:56:13.885Z,18.83
2023-01-13T02:58:43.582Z,17.92
2023-01-13T03:01:10.706Z,16.40
2023-01-13T03:03:38.045Z,12.25
2023-01-13T03:06:25.975Z,14.10
2023-01-13T03:09:06.383Z,13.40
2023-01-13T03:11:50.605Z,13.43
2023-01-13T03:14:55.487Z,13.63
2023-01-13T03:17:40.208Z,13.10
2023-01-13T03:20:16.846Z,13.52
2023-01-13T03:23:14.605Z,14.82
2023-01-13T03:25:51.004Z,13.45
2023-01-13T03:28:29.013Z,13.32
2023-01-13T03:31:08.285Z,11.88
2023-01-13T03:33:45.975Z,15.60
2023-01-13T03:36:18.121Z,13.02
2023-01-13T03:38:51.724Z,12.70
2023-01-13T03:41:25.724Z,12.43
2023-01-13T03:44:19.246Z,10.85
2023-01-13T03:47:09.489Z,10.93
2023-01-13T03:49:55.565Z,14.48
2023-01-13T03:52:28.534Z,10.05
2023-01-13T03:55:04.452Z,11.38
2023-01-13T03:57:37.688Z,14.93
2023-01-13T04:00:09.729Z,12.55
2023-01-13T04:02:59.412Z,15.77
2023-01-13T04:05:28.720Z,16.13
2023-01-13T04:08:05.877Z,13.63
2023-01-13T04:10:41.192Z,14.77
2023-01-13T04:13:16.688Z,10.40
2023-01-13T04:15:46.184Z,11.27
2023-01-13T04:18:30.609Z,13.18
2023-01-13T04:21:00.210Z,14.95
2023-01-13T04:23:28.259Z,12.18
2023-01-13T04:25:56.126Z,15.93
2023-01-13T04:28:23.486Z,15.10
2023-01-13T04:30:50.898Z,10.27
2023-01-13T04:33:20.444Z,10.82
2023-01-13T04:35:49.886Z,10.30
2023-01-13T04:38:19.651Z,12.02
2023-01-13T04:40:46.767Z,10.32
2023-01-13T04:43:15.919Z,12.68
2023-01-13T04:45:44.121Z,15.73
2023-01-13T04:48:11.649Z,14.48
2023-01-13T04:50:39.715Z,12.93
2023-01-13T04:53:07.369Z,13.63
2023-01-13T04:55:36.557Z,11.27
2023-01-13T04:58:10.240Z,12.80
2023-01-13T05:00:39.261Z,12.77
2023-01-13T05:03:14.329Z,15.07
2023-01-13T05:05:44.123Z,17.20
2023-01-13T05:08:13.652Z,14.15
2023-01-13T05:10:41.368Z,14.60
2023-01-13T05:13:29.404Z,11.73
2023-01-13T05:16:21.469Z,13.65
2023-01-13T05:18:49.863Z,10.27
2023-01-13T05:21:35.683Z,11.57
2023-01-13T05:24:21.485Z,10.82
2023-01-13T05:26:48.685Z,14.82
2023-01-13T05:29:15.802Z,13.52
2023-01-13T05:31:43.408Z,12.75
2023-01-13T05:34:10.911Z,15.18
2023-01-13T05:36:37.967Z,12.82
2023-01-13T05:39:05.502Z,14.05
2023-01-13T05:41:51.734Z,11.77
2023-01-13T05:44:19.253Z,19.75
2023-01-13T05:46:46.579Z,14.52
2023-01-13T05:49:13.892Z,11.43
2023-01-13T05:51:40.940Z,11.55
2023-01-13T05:54:08.043Z,16.17
2023-01-13T05:56:35.449Z,11.38
2023-01-13T05:59:02.944Z,18.58
2023-01-13T06:01:29.943Z,15.40
2023-01-13T06:03:57.644Z,14.23
2023-01-13T06:06:24.689Z,14.38
2023-01-13T06:08:52.207Z,16.92
2023-01-13T06:11:19.564Z,12.93
2023-01-13T06:13:47.003Z,14.13
2023-01-13T06:16:14.187Z,11.20
2023-01-13T06:18:41.641Z,10.43
2023-01-13T06:21:08.925Z,13.90
2023-01-13T06:23:38.884Z,12.35
2023-01-13T06:26:14.766Z,13.13
2023-01-13T06:28:42.458Z,16.27
2023-01-13T06:31:10.976Z,13.23
2023-01-13T06:33:44.048Z,15.02
2023-01-13T06:36:19.739Z,16.30
2023-01-13T06:38:50.303Z,14.07
2023-01-13T06:41:39.567Z,14.52
2023-01-13T06:44:07.511Z,11.55
2023-01-13T06:46:36.080Z,14.38
2023-01-13T06:49:04.216Z,13.82
2023-01-13T06:51:31.509Z,14.45
2023-01-13T06:53:58.606Z,13.75
2023-01-13T06:56:25.905Z,14.07
2023-01-13T06:58:53.085Z,15.98
2023-01-13T07:01:20.525Z,11.48
2023-01-13T07:03:47.883Z,13.98
2023-01-13T07:06:15.085Z,15.70
2023-01-13T07:08:42.855Z,16.38
2023-01-13T07:11:09.804Z,12.35
2023-01-13T07:13:55.672Z,14.07
2023-01-13T07:16:24.618Z,15.30
2023-01-13T07:18:51.807Z,15.73
2023-01-13T07:21:21.019Z,15.77
2023-01-13T07:23:49.076Z,16.27
2023-01-13T07:26:17.084Z,17.70
2023-01-13T07:31:18.596Z,14.60
2023-01-13T07:33:46.457Z,17.45
2023-01-13T07:36:16.070Z,17.35
2023-01-13T07:38:47.093Z,17.15
2023-01-13T07:41:34.042Z,16.50
2023-01-13T07:44:05.202Z,19.45
2023-01-13T07:46:33.988Z,20.25
2023-01-13T07:49:01.203Z,23.23
2023-01-13T07:51:29.643Z,24.10
2023-01-13T07:53:57.479Z,18.58
2023-01-13T07:56:25.165Z,23.05
2023-01-13T07:58:53.201Z,20.27
2023-01-13T08:01:20.804Z,18.30
2023-01-13T08:03:47.972Z,22.48
2023-01-13T08:06:15.491Z,25.63
2023-01-13T08:08:45.087Z,17.77
2023-01-13T08:11:12.378Z,19.52
2023-01-13T08:13:39.571Z,17.40
2023-01-13T08:16:09.732Z,21.13
2023-01-13T08:18:38.532Z,19.45
2023-01-13T08:21:08.702Z,20.83
2023-01-13T08:23:36.374Z,14.60
2023-01-13T08:26:08.764Z,18.33
2023-01-13T08:28:35.810Z,17.83
2023-01-13T08:31:05.553Z,18.70
2023-01-13T08:33:33.734Z,25.95
2023-01-13T08:36:05.643Z,19.42
2023-01-13T08:38:34.776Z,19.77
2023-01-13T08:41:08.872Z,19.10
2023-01-13T08:43:36.047Z,21.45
2023-01-13T08:46:07.203Z,16.50
2023-01-13T08:48:34.586Z,20.58
2023-01-13T08:51:07.891Z,19.05
2023-01-13T08:53:35.164Z,18.38
2023-01-13T08:56:02.861Z,15.65
2023-01-13T08:58:30.134Z,22.27
2023-01-13T09:00:57.421Z,21.27
2023-01-13T09:03:24.763Z,20.70
2023-01-13T09:05:52.049Z,22.25
2023-01-13T09:08:19.651Z,18.33
2023-01-13T09:10:47.165Z,16.13
2023-01-13T09:13:15.749Z,16.98
2023-01-13T09:15:45.693Z,16.15
2023-01-13T09:18:13.648Z,16.85
2023-01-13T09:20:40.927Z,14.23
2023-01-13T09:23:10.624Z,16.77
2023-01-13T09:25:39.753Z,14.52
2023-01-13T09:28:08.913Z,15.30
2023-01-13T09:30:38.137Z,28.58
2023-01-13T09:33:23.836Z,21.30
2023-01-13T09:35:51.092Z,22.40
2023-01-13T09:38:20.048Z,19.45
2023-01-13T09:40:49.569Z,22.70
2023-01-13T09:43:53.845Z,23.38
2023-01-13T09:46:48.195Z,21.73
2023-01-13T09:49:23.039Z,19.90
2023-01-13T09:52:04.205Z,21.67
2023-01-13T09:54:38.849Z,21.15
2023-01-13T09:57:14.610Z,18.27
2023-01-13T09:59:42.764Z,16.08
2023-01-13T10:02:48.285Z,21.67
2023-01-13T10:05:20.842Z,18.70
2023-01-13T10:07:53.571Z,17.10
2023-01-13T10:10:49.177Z,16.42
2023-01-13T10:13:24.646Z,19.00
2023-01-13T10:16:13.162Z,18.25
2023-01-13T10:19:05.850Z,19.20
2023-01-13T10:21:39.495Z,18.98
2023-01-13T10:24:10.606Z,19.17
2023-01-13T10:26:53.725Z,18.70
2023-01-13T10:29:26.218Z,15.00
2023-01-13T10:31:57.829Z,24.90
2023-01-13T10:34:26.290Z,18.98
2023-01-13T10:37:09.727Z,22.38
2023-01-13T10:39:46.449Z,22.20
2023-01-13T10:42:22.348Z,21.63
2023-01-13T10:44:52.372Z,21.73
2023-01-13T10:47:31.636Z,21.70
2023-01-13T10:50:11.407Z,29.15
2023-01-13T10:52:43.262Z,22.92
2023-01-13T10:55:27.636Z,19.88
2023-01-13T10:57:54.931Z,29.05
2023-01-13T11:00:49.644Z,23.05
2023-01-13T11:03:18.926Z,29.33
2023-01-13T11:06:04.768Z,28.73
2023-01-13T11:08:45.394Z,26.65
2023-01-13T11:11:42.855Z,22.48
2023-01-13T11:14:46.621Z,29.35
2023-01-13T11:17:33.622Z,22.65
2023-01-13T11:20:14.207Z,20.38
2023-01-13T11:22:52.345Z,19.90
2023-01-13T11:25:44.941Z,21.42
2023-01-13T11:28:48.271Z,23.02
2023-01-13T11:31:20.269Z,14.18
2023-01-13T11:33:55.331Z,13.88
2023-01-13T11:36:31.676Z,15.52
2023-01-13T11:39:27.174Z,10.68
2023-01-13T11:42:19.327Z,11.00
2023-01-13T11:45:19.891Z,12.40
2023-01-13T11:47:51.530Z,12.38
2023-01-13T11:50:54.327Z,10.30
2023-01-13T11:53:49.845Z,11.98
2023-01-13T11:56:39.096Z,14.57
2023-01-13T11:59:37.399Z,15.95
2023-01-13T12:02:04.687Z,18.17
2023-01-13T12:04:49.299Z,11.70
2023-01-13T12:07:25.932Z,11.88
2023-01-13T12:10:29.298Z,16.85
2023-01-13T12:13:09.951Z,14.25
2023-01-13T12:16:01.636Z,16.05
2023-01-13T12:18:48.285Z,12.23
2023-01-13T12:21:25.927Z,14.93
2023-01-13T12:24:05.167Z,13.48
2023-01-13T12:26:39.391Z,11.23
2023-01-13T12:29:14.584Z,16.88
2023-01-13T12:31:44.390Z,17.55
2023-01-13T12:34:37.455Z,15.32
2023-01-13T12:40:22.331Z,14.27
2023-01-13T12:43:26.914Z,15.38
2023-01-13T12:45:54.032Z,16.35
2023-01-13T12:49:00.244Z,15.20
2023-01-13T12:51:38.483Z,14.30
2023-01-13T12:54:38.086Z,16.60
2023-01-13T12:57:24.967Z,21.40
2023-01-13T13:00:16.565Z,15.93
2023-01-13T13:03:06.157Z,14.93
2023-01-13T13:05:59.510Z,19.48
2023-01-13T13:08:43.048Z,16.20
2023-01-13T13:11:49.882Z,17.58
2023-01-13T13:14:37.918Z,18.33
2023-01-13T13:17:11.773Z,12.88
2023-01-13T13:19:39.349Z,13.70
2023-01-13T13:22:12.486Z,16.02
2023-01-13T13:27:45.216Z,16.30
2023-01-13T13:30:49.358Z,18.02
2023-01-13T13:33:32.164Z,16.73
2023-01-13T13:36:40.248Z,12.15
2023-01-13T13:39:47.448Z,11.30
2023-01-13T13:42:36.568Z,14.95
2023-01-13T13:45:34.966Z,15.95
2023-01-13T13:48:39.639Z,13.00
2023-01-13T13:51:49.623Z,20.40
2023-01-13T13:54:21.396Z,13.88
2023-01-13T13:56:51.043Z,17.75
2023-01-13T13:59:27.241Z,21.63
2023-01-13T14:02:06.488Z,18.33
2023-01-13T14:04:37.117Z,21.30
2023-01-13T14:07:21.096Z,13.85
2023-01-13T14:09:52.930Z,16.42
2023-01-13T14:12:26.138Z,14.82
2023-01-13T14:14:57.720Z,13.88
2023-01-13T14:17:28.062Z,15.77
2023-01-13T14:20:06.363Z,14.57
2023-01-13T14:22:35.217Z,12.50
2023-01-13T14:25:03.892Z,21.30
2023-01-13T14:27:32.296Z,12.13
2023-01-13T14:30:01.878Z,13.77
2023-01-13T14:32:36.749Z,13.85
2023-01-13T14:35:07.805Z,13.05
2023-01-13T14:37:41.026Z,8.98
2023-01-13T14:40:33.890Z,12.10
2023-01-13T14:43:03.989Z,11.60
2023-01-13T14:45:33.533Z,13.23
2023-01-13T14:48:02.812Z,10.65
2023-01-13T14:50:34.424Z,12.73
2023-01-13T14:53:02.753Z,14.10
2023-01-13T14:55:41.609Z,13.98
2023-01-13T14:58:26.417Z,15.23
2023-01-13T15:01:27.072Z,15.20
2023-01-13T15:03:54.738Z,16.95
2023-01-13T15:06:27.151Z,16.33
2023-01-13T15:08:54.673Z,17.33
2023-01-13T15:11:28.879Z,21.35
2023-01-13T15:14:04.566Z,15.82
2023-01-13T15:16:34.717Z,16.90
2023-01-13T15:19:03.604Z,15.63
2023-01-13T15:21:32.098Z,19.08
2023-01-13T15:24:02.749Z,15.43
2023-01-13T15:26:33.446Z,15.93
2023-01-13T15:29:01.435Z,13.00
2023-01-13T15:31:29.272Z,14.82
2023-01-13T15:33:59.046Z,23.40
2023-01-13T15:36:32.344Z,21.08
2023-01-13T15:39:02.174Z,14.73
2023-01-13T15:41:48.170Z,16.83
2023-01-13T15:44:35.970Z,14.98
2023-01-13T15:47:07.388Z,15.95
2023-01-13T15:49:45.106Z,22.00
2023-01-13T15:52:25.604Z,12.90
2023-01-13T15:54:54.533Z,10.48
2023-01-13T15:57:31.850Z,11.82
2023-01-13T16:00:02.899Z,9.05
2023-01-13T16:02:34.288Z,11.52
2023-01-13T16:05:02.408Z,10.35
2023-01-13T16:07:30.047Z,8.80
2023-01-13T16:09:57.694Z,10.10
2023-01-13T16:12:24.894Z,11.20
2023-01-13T16:14:53.053Z,8.63
2023-01-13T16:17:23.778Z,8.60
2023-01-13T16:19:52.173Z,10.43
2023-01-13T16:22:19.393Z,9.93
2023-01-13T16:24:48.592Z,15.48
2023-01-13T16:27:22.510Z,14.00
2023-01-13T16:29:51.982Z,15.02
2023-01-13T16:32:22.327Z,15.55
2023-01-13T16:34:51.174Z,12.35
2023-01-13T16:37:26.354Z,14.68
2023-01-13T16:39:54.875Z,16.52
2023-01-13T16:42:23.345Z,16.13
2023-01-13T16:44:52.068Z,19.13
2023-01-13T16:47:19.762Z,13.48
2023-01-13T16:49:48.233Z,20.38
2023-01-13T16:52:15.597Z,24.38
2023-01-13T16:54:42.718Z,20.42
2023-01-13T16:57:14.007Z,18.23
2023-01-13T16:59:45.481Z,23.77
2023-01-13T17:02:16.806Z,32.60
2023-01-13T17:04:43.904Z,35.63
2023-01-13T17:07:17.449Z,30.60
2023-01-13T17:09:45.830Z,34.22
2023-01-13T17:12:13.859Z,30.88
2023-01-13T17:14:43.613Z,32.58
2023-01-13T17:17:22.195Z,29.10
2023-01-13T17:19:49.367Z,28.20
2023-01-13T17:22:16.825Z,26.10
2023-01-13T17:24:44.086Z,26.60
2023-01-13T17:27:13.846Z,25.33
2023-01-13T17:29:42.808Z,23.95
2023-01-13T17:32:16.242Z,25.20
2023-01-13T17:34:44.406Z,29.35
2023-01-13T17:37:16.734Z,25.05
2023-01-13T17:39:46.568Z,21.55
2023-01-13T17:42:14.569Z,22.08
2023-01-13T17:44:43.219Z,21.00
2023-01-13T17:47:11.341Z,21.65
2023-01-13T17:49:39.799Z,21.48
2023-01-13T17:52:08.112Z,33.90
2023-01-13T17:54:36.163Z,28.95
2023-01-13T17:57:04.564Z,23.05
2023-01-13T17:59:32.708Z,30.13
2023-01-13T18:02:00.633Z,31.85
2023-01-13T18:04:29.218Z,30.00
2023-01-13T18:06:59.845Z,29.77
2023-01-13T18:09:30.720Z,28.30
2023-01-13T18:11:59.202Z,36.45
2023-01-13T18:14:28.593Z,34.00
2023-01-13T18:16:56.076Z,30.65
2023-01-13T18:19:42.798Z,23.63
2023-01-13T18:22:33.533Z,19.33
2023-01-13T18:25:21.797Z,19.38
2023-01-13T18:27:49.124Z,20.25
2023-01-13T18:30:16.415Z,20.90
2023-01-13T18:32:43.685Z,31.98
2023-01-13T18:35:12.237Z,26.98
2023-01-13T18:37:43.856Z,26.83
2023-01-13T18:40:13.858Z,24.17
2023-01-13T18:43:00.578Z,25.70
2023-01-13T18:45:29.995Z,20.05
2023-01-13T18:48:00.479Z,21.33
2023-01-13T18:50:28.729Z,21.67
2023-01-13T18:52:57.776Z,21.60
2023-01-13T18:55:26.149Z,17.98
2023-01-13T18:57:57.358Z,20.77
2023-01-13T19:00:25.830Z,27.20
2023-01-13T19:05:38.472Z,29.23
2023-01-13T19:08:07.171Z,29.60
2023-01-13T19:10:34.718Z,30.48
2023-01-13T19:13:03.520Z,26.67
2023-01-13T19:15:31.889Z,34.97
2023-01-13T19:18:01.350Z,32.15
2023-01-13T19:20:29.530Z,39.78
2023-01-13T19:22:57.316Z,52.63
2023-01-13T19:25:25.338Z,44.22
2023-01-13T19:27:55.828Z,42.47
2023-01-13T19:30:25.497Z,36.63
2023-01-13T19:32:53.044Z,35.95
2023-01-13T19:35:20.601Z,30.67
2023-01-13T19:37:48.559Z,30.45
2023-01-13T19:40:16.730Z,27.25
2023-01-13T19:43:03.986Z,26.80
2023-01-13T19:45:36.172Z,24.13
2023-01-13T19:48:06.724Z,22.67
2023-01-13T19:50:43.086Z,21.08
2023-01-13T19:53:21.061Z,20.08
2023-01-13T19:55:50.086Z,18.70
2023-01-13T19:58:20.223Z,19.73
2023-01-13T20:00:56.625Z,19.25
2023-01-13T20:03:33.326Z,20.25
2023-01-13T20:06:12.157Z,23.52
2023-01-13T20:08:41.551Z,19.25
2023-01-13T20:11:31.148Z,22.05
2023-01-13T20:13:59.521Z,20.92
2023-01-13T20:16:33.122Z,24.33
2023-01-13T20:19:00.174Z,19.13
2023-01-13T20:21:28.727Z,22.15
2023-01-13T20:23:59.164Z,16.92
2023-01-13T20:26:27.225Z,19.75
2023-01-13T20:28:54.484Z,22.17
2023-01-13T20:31:21.988Z,21.23
2023-01-13T20:33:50.948Z,20.95
2023-01-13T20:36:32.311Z,18.13
2023-01-13T20:39:01.984Z,24.92
2023-01-13T20:41:48.563Z,23.70
2023-01-13T20:44:16.251Z,28.15
2023-01-13T20:46:45.090Z,25.10
2023-01-13T20:49:15.213Z,24.83
2023-01-13T20:51:47.317Z,23.38
2023-01-13T20:54:16.417Z,29.23
2023-01-13T20:56:44.962Z,27.75
2023-01-13T20:59:13.361Z,30.15
2023-01-13T21:01:40.690Z,28.52
2023-01-13T21:04:08.751Z,38.97
2023-01-13T21:06:36.485Z,32.25
2023-01-13T21:09:04.162Z,35.03
2023-01-13T21:11:49.855Z,28.95
2023-01-13T21:14:39.364Z,29.55
2023-01-13T21:17:08.641Z,29.88
2023-01-13T21:19:35.778Z,28.17
2023-01-13T21:22:04.403Z,25.25
2023-01-13T21:24:31.976Z,26.73
2023-01-13T21:27:00.167Z,25.65
2023-01-13T21:29:29.682Z,22.73
2023-01-13T21:31:57.651Z,23.58
2023-01-13T21:34:24.964Z,28.98
2023-01-13T21:36:52.082Z,26.60
2023-01-13T21:39:19.191Z,27.27
2023-01-13T21:42:04.885Z,25.90
2023-01-13T21:44:50.674Z,20.65
2023-01-13T21:47:39.924Z,18.38
2023-01-13T21:50:13.376Z,23.10
2023-01-13T21:52:44.003Z,19.13
2023-01-13T21:55:25.047Z,20.08
2023-01-13T21:58:10.423Z,17.42
2023-01-13T22:00:38.857Z,17.63
2023-01-13T22:03:08.173Z,18.92
2023-01-13T22:05:37.525Z,28.35
2023-01-13T22:08:05.617Z,25.58
2023-01-13T22:10:34.225Z,27.55
2023-01-13T22:13:23.691Z,25.38
2023-01-13T22:15:52.167Z,27.95
2023-01-13T22:18:20.244Z,32.20
2023-01-13T22:20:49.364Z,30.63
2023-01-13T22:23:16.907Z,34.50
2023-01-13T22:25:44.487Z,28.77
2023-01-13T22:28:14.552Z,29.02
2023-01-13T22:30:41.819Z,33.55
2023-01-13T22:33:09.045Z,30.10
2023-01-13T22:35:36.327Z,28.48
2023-01-13T22:38:03.508Z,30.85
2023-01-13T22:40:30.723Z,30.70
2023-01-13T22:42:58.006Z,35.30
2023-01-13T22:45:25.153Z,31.38
2023-01-13T22:47:52.652Z,31.08
2023-01-13T22:50:21.185Z,32.92
2023-01-13T22:52:48.882Z,33.90
2023-01-13T22:55:16.056Z,33.80
2023-01-13T22:57:48.239Z,29.50
2023-01-13T23:00:19.346Z,30.95
2023-01-13T23:02:47.205Z,29.88
2023-01-13T23:05:14.323Z,32.55
2023-01-13T23:07:41.675Z,28.35
2023-01-13T23:10:09.203Z,29.05
2023-01-13T23:12:36.182Z,31.02
2023-01-13T23:15:04.251Z,31.65
2023-01-13T23:17:31.446Z,26.63
2023-01-13T23:19:58.803Z,28.90
2023-01-13T23:22:25.848Z,31.10
2023-01-13T23:24:53.206Z,27.45
2023-01-13T23:27:20.490Z,28.65
2023-01-13T23:29:48.095Z,28.80
2023-01-13T23:32:15.290Z,26.98
2023-01-13T23:34:42.557Z,27.70
2023-01-13T23:37:09.527Z,28.23
2023-01-13T23:39:37.034Z,27.50
2023-01-13T23:42:04.517Z,28.00
2023-01-13T23:44:31.601Z,27.90
2023-01-13T23:46:58.964Z,28.80
2023-01-13T23:49:26.005Z,29.80
2023-01-13T23:51:53.291Z,24.40
2023-01-13T23:54:20.484Z,26.52
2023-01-13T23:56:50.489Z,26.05
2023-01-13T23:59:18.784Z,35.13
